Time;durP1;ratioP1;P1;durP2;ratioP2;P2;SDS_P1;SDS_P2;PMS_P1;PMS_P2;Temp;Humidity;BMP_temperature;BMP_pressure;BME280_temperature;BME280_humidity;BME280_pressure;Samples;Min_cycle;Max_cycle;Signal;HPM_P1;HPM_P2
2022/11/08 00:03:32;;;;;;;10.70;3.42;;;10.70;99.90;;;;;;5008407;28;20033;-74
2022/11/08 00:14:10;;;;;;;10.32;3.35;;;10.70;99.90;;;;;;5015757;28;20039;-74
2022/11/08 00:16:36;;;;;;;12.55;3.20;;;10.80;99.90;;;;;;5008632;28;20029;-74
2022/11/08 00:19:02;;;;;;;10.55;3.35;;;10.80;99.90;;;;;;5013993;28;20026;-74
2022/11/08 00:21:27;;;;;;;11.70;3.55;;;10.80;99.90;;;;;;5009575;28;20034;-74
2022/11/08 00:23:53;;;;;;;8.40;3.50;;;10.90;99.90;;;;;;5010637;28;20002;-74
2022/11/08 00:26:19;;;;;;;12.48;3.80;;;10.90;99.90;;;;;;5016619;28;20485;-74
2022/11/08 00:28:44;;;;;;;10.65;3.53;;;10.80;99.90;;;;;;5015785;28;20029;-73
2022/11/08 00:31:10;;;;;;;9.18;3.60;;;10.80;99.90;;;;;;5016536;28;20045;-73
2022/11/08 00:33:36;;;;;;;19.13;4.00;;;10.90;99.90;;;;;;5015098;28;20036;-73
2022/11/08 00:36:02;;;;;;;11.23;3.58;;;10.90;99.90;;;;;;5010706;28;20041;-73
2022/11/08 00:38:28;;;;;;;10.23;3.33;;;10.90;99.90;;;;;;5014884;28;20444;-74
2022/11/08 00:40:53;;;;;;;13.43;3.60;;;11.00;99.90;;;;;;5010867;28;20033;-74
2022/11/08 00:43:20;;;;;;;10.00;3.28;;;10.90;99.90;;;;;;5012691;28;20030;-73
2022/11/08 00:45:45;;;;;;;10.85;3.22;;;10.90;99.90;;;;;;5012341;28;20490;-73
2022/11/08 00:48:11;;;;;;;9.55;3.45;;;11.00;99.90;;;;;;5011655;28;20113;-74
2022/11/08 00:50:40;;;;;;;8.27;3.30;;;11.00;99.90;;;;;;5018227;28;20026;-74
2022/11/08 00:53:05;;;;;;;11.02;3.55;;;11.00;99.90;;;;;;5014666;28;20036;-74
2022/11/08 00:55:31;;;;;;;10.48;3.60;;;11.00;99.90;;;;;;5013125;28;20026;-74
2022/11/08 00:57:57;;;;;;;11.38;3.78;;;11.00;99.90;;;;;;5014664;28;20118;-74
2022/11/08 01:00:22;;;;;;;10.98;3.83;;;11.00;99.90;;;;;;5013024;28;20563;-74
2022/11/08 01:03:17;;;;;;;10.13;3.40;;;11.00;99.90;;;;;;5007365;28;20908;-73
2022/11/08 01:05:36;;;;;;;13.35;3.30;;;11.00;99.90;;;;;;5010245;28;20116;-74
2022/11/08 01:08:02;;;;;;;11.45;4.00;;;11.00;99.90;;;;;;5012178;28;20033;-74
2022/11/08 01:10:27;;;;;;;8.90;3.17;;;11.10;99.90;;;;;;5016548;28;20030;-74
2022/11/08 01:12:53;;;;;;;11.30;3.40;;;11.00;99.90;;;;;;5009196;28;21654;-74
2022/11/08 01:15:18;;;;;;;11.18;3.45;;;11.00;99.90;;;;;;5010168;28;20401;-74
2022/11/08 01:17:44;;;;;;;13.70;3.60;;;11.00;99.90;;;;;;5011683;28;20159;-74
2022/11/08 01:20:10;;;;;;;12.68;3.30;;;11.00;99.90;;;;;;5012378;28;20064;-73
2022/11/08 01:22:35;;;;;;;13.32;3.50;;;10.90;99.90;;;;;;5012855;28;20052;-74
2022/11/08 01:25:01;;;;;;;15.35;3.28;;;10.90;99.90;;;;;;5004620;28;20063;-74
2022/11/08 01:27:27;;;;;;;9.80;3.50;;;10.80;99.90;;;;;;5018268;28;20056;-74
2022/11/08 01:29:52;;;;;;;14.60;3.47;;;10.70;99.90;;;;;;5010483;28;20049;-74
2022/11/08 01:32:18;;;;;;;9.57;3.40;;;10.70;99.90;;;;;;5008908;28;20112;-74
2022/11/08 01:34:43;;;;;;;11.70;3.30;;;10.70;99.90;;;;;;5007565;28;20465;-74
2022/11/08 01:37:09;;;;;;;9.80;3.28;;;10.60;99.90;;;;;;5007160;28;20037;-74
2022/11/08 01:39:35;;;;;;;10.43;3.28;;;10.60;99.90;;;;;;5005678;28;20021;-74
2022/11/08 01:42:00;;;;;;;9.35;3.10;;;10.50;99.90;;;;;;5011843;28;20039;-74
2022/11/08 01:44:26;;;;;;;12.18;3.58;;;10.50;99.90;;;;;;5012182;28;20206;-73
2022/11/08 01:46:51;;;;;;;8.73;3.42;;;10.50;99.90;;;;;;5012097;28;20440;-73
2022/11/08 01:49:20;;;;;;;9.93;3.40;;;10.40;99.90;;;;;;5018717;28;20038;-73
2022/11/08 01:51:52;;;;;;;12.60;4.10;;;10.40;99.90;;;;;;5018349;28;20383;-73
2022/11/08 01:54:30;;;;;;;11.80;3.97;;;10.40;99.90;;;;;;5012897;28;20060;-73
2022/11/08 01:57:00;;;;;;;11.73;4.15;;;10.40;99.90;;;;;;5017513;28;20649;-73
2022/11/08 01:59:27;;;;;;;11.43;4.22;;;10.30;99.90;;;;;;5012179;28;20032;-73
2022/11/08 02:01:53;;;;;;;9.27;3.70;;;10.30;99.90;;;;;;5009928;28;20192;-74
2022/11/08 02:04:19;;;;;;;10.20;3.65;;;10.20;99.90;;;;;;5019247;28;20561;-74
2022/11/08 02:06:44;;;;;;;7.50;3.20;;;10.20;99.90;;;;;;5011687;28;20091;-74
2022/11/08 02:09:14;;;;;;;9.75;3.78;;;10.10;99.90;;;;;;5012237;28;20030;-74
2022/11/08 02:11:40;;;;;;;10.52;4.03;;;10.10;99.90;;;;;;5009182;28;20034;-73
2022/11/08 02:14:06;;;;;;;10.18;3.28;;;10.10;99.90;;;;;;5015417;28;20029;-74
2022/11/08 02:16:32;;;;;;;8.75;3.50;;;10.00;99.90;;;;;;5019812;28;20075;-74
2022/11/08 02:18:58;;;;;;;8.80;3.60;;;10.00;99.90;;;;;;5020617;28;20042;-74
2022/11/08 02:21:29;;;;;;;12.65;3.38;;;9.90;99.90;;;;;;5026189;28;20389;-74
2022/11/08 02:24:05;;;;;;;9.98;3.63;;;9.90;99.90;;;;;;5021149;28;20098;-73
2022/11/08 02:26:32;;;;;;;7.32;3.30;;;9.70;99.90;;;;;;5021113;28;20533;-74
2022/11/08 02:28:59;;;;;;;5.55;3.00;;;9.60;99.90;;;;;;5031861;28;20032;-74
2022/11/08 02:31:24;;;;;;;6.32;2.92;;;9.60;99.90;;;;;;5020907;28;20780;-74
2022/11/08 02:33:50;;;;;;;9.43;3.13;;;9.60;99.90;;;;;;5028215;28;20404;-74
2022/11/08 02:36:21;;;;;;;5.65;2.85;;;9.50;99.90;;;;;;5008055;28;20035;-74
2022/11/08 02:38:52;;;;;;;8.73;3.40;;;9.60;99.90;;;;;;5015652;28;20043;-74
2022/11/08 02:41:17;;;;;;;6.88;2.72;;;9.60;99.90;;;;;;5024389;28;20516;-74
2022/11/08 02:43:43;;;;;;;7.25;2.78;;;9.60;99.90;;;;;;5015380;28;20034;-73
2022/11/08 02:46:09;;;;;;;4.95;3.10;;;9.60;99.90;;;;;;5019593;28;20031;-73
2022/11/08 02:48:34;;;;;;;6.07;2.72;;;9.50;99.90;;;;;;5014183;28;20040;-73
2022/11/08 02:51:00;;;;;;;7.22;3.00;;;9.50;99.90;;;;;;5017164;28;20033;-74
2022/11/08 02:53:26;;;;;;;6.35;2.80;;;9.50;99.90;;;;;;5023573;28;20075;-74
2022/11/08 02:55:52;;;;;;;6.75;2.88;;;9.50;99.90;;;;;;5004252;28;20095;-74
2022/11/08 02:58:17;;;;;;;6.88;3.28;;;9.50;99.90;;;;;;5003627;28;20036;-73
2022/11/08 03:00:43;;;;;;;7.72;2.97;;;9.50;99.90;;;;;;4992622;28;20102;-73
2022/11/08 03:03:08;;;;;;;7.75;2.90;;;9.50;99.90;;;;;;5016624;28;20486;-73
2022/11/08 03:05:34;;;;;;;10.13;3.13;;;9.40;99.90;;;;;;5022920;28;20021;-73
2022/11/08 03:08:00;;;;;;;10.35;3.42;;;9.50;99.90;;;;;;5024973;28;20041;-73
2022/11/08 03:10:27;;;;;;;5.55;3.17;;;9.40;99.90;;;;;;5010175;28;20380;-74
2022/11/08 03:13:03;;;;;;;8.55;3.28;;;9.40;99.90;;;;;;5019117;28;20322;-73
2022/11/08 03:15:29;;;;;;;9.95;3.83;;;9.40;99.90;;;;;;5026540;28;20037;-73
2022/11/08 03:17:55;;;;;;;7.53;3.30;;;9.40;99.90;;;;;;5022830;28;20377;-74
2022/11/08 03:20:22;;;;;;;10.52;3.50;;;9.40;99.90;;;;;;5012070;28;20102;-73
2022/11/08 03:22:47;;;;;;;7.95;3.30;;;9.40;99.90;;;;;;5013060;28;20581;-73
2022/11/08 03:25:13;;;;;;;7.68;3.35;;;9.40;99.90;;;;;;5007845;28;20038;-73
2022/11/08 03:27:39;;;;;;;6.35;3.28;;;9.30;99.90;;;;;;5011995;28;20033;-74
2022/11/08 03:30:06;;;;;;;10.50;3.60;;;9.30;99.90;;;;;;5011953;28;20062;-74
2022/11/08 03:32:31;;;;;;;9.38;3.60;;;9.30;99.90;;;;;;5012836;28;21092;-73
2022/11/08 03:34:59;;;;;;;8.70;3.42;;;9.20;99.90;;;;;;5011616;28;20033;-73
2022/11/08 03:37:25;;;;;;;14.40;4.00;;;9.30;99.90;;;;;;5013546;28;20029;-74
2022/11/08 03:39:50;;;;;;;9.13;3.72;;;9.20;99.90;;;;;;5025192;28;20642;-73
2022/11/08 03:42:16;;;;;;;8.77;3.42;;;9.20;99.90;;;;;;5017593;28;20034;-74
2022/11/08 03:44:42;;;;;;;10.48;3.85;;;9.20;99.90;;;;;;5017495;28;20226;-74
2022/11/08 03:47:08;;;;;;;6.43;3.15;;;9.20;99.90;;;;;;5023473;28;20456;-73
2022/11/08 03:49:34;;;;;;;8.77;3.38;;;9.10;99.90;;;;;;5020561;28;20394;-74
2022/11/08 03:51:59;;;;;;;12.95;3.30;;;9.10;99.90;;;;;;5019592;28;20033;-74
2022/11/08 03:54:25;;;;;;;6.65;3.05;;;9.10;99.90;;;;;;5022267;28;20040;-73
2022/11/08 03:56:51;;;;;;;6.97;3.03;;;9.10;99.90;;;;;;5018299;28;20017;-74
2022/11/08 03:59:16;;;;;;;5.28;2.85;;;9.10;99.90;;;;;;5023796;28;20571;-74
2022/11/08 04:01:42;;;;;;;2.90;2.22;;;9.10;99.90;;;;;;5014423;28;20026;-74
2022/11/08 04:04:07;;;;;;;4.15;2.33;;;9.00;99.90;;;;;;5012148;28;20029;-74
2022/11/08 04:06:33;;;;;;;4.15;2.47;;;9.00;99.90;;;;;;5010174;28;20025;-74
2022/11/08 04:08:59;;;;;;;4.88;2.20;;;9.10;99.90;;;;;;5012946;28;20444;-74
2022/11/08 04:16:54;;;;;;;5.32;2.25;;;9.00;99.90;;;;;;5013312;28;20033;-73
2022/11/08 04:22:05;;;;;;;5.90;2.40;;;8.90;99.90;;;;;;5008909;28;20045;-74
2022/11/08 04:24:31;;;;;;;4.47;2.20;;;8.90;99.90;;;;;;5020602;28;20114;-73
2022/11/08 04:26:57;;;;;;;5.55;2.20;;;8.90;99.90;;;;;;5011053;28;20038;-74
2022/11/08 04:29:22;;;;;;;3.75;2.13;;;8.80;99.90;;;;;;5015692;28;20088;-74
2022/11/08 04:31:48;;;;;;;2.45;1.80;;;8.80;99.90;;;;;;5016967;28;20171;-74
2022/11/08 04:34:14;;;;;;;3.90;2.08;;;8.70;99.90;;;;;;5012813;28;20033;-74
2022/11/08 04:36:39;;;;;;;4.63;1.83;;;8.80;99.90;;;;;;5016314;28;20049;-73
2022/11/08 04:39:05;;;;;;;3.33;2.10;;;8.80;99.90;;;;;;5014517;28;20044;-73
2022/11/08 04:41:30;;;;;;;3.38;1.98;;;8.80;99.90;;;;;;5012942;28;20124;-74
2022/11/08 04:43:56;;;;;;;4.43;1.77;;;8.80;99.90;;;;;;5015390;28;20040;-74
2022/11/08 04:46:26;;;;;;;5.75;1.92;;;8.70;99.90;;;;;;5023029;28;20040;-74
2022/11/08 04:48:55;;;;;;;3.38;2.03;;;8.60;99.90;;;;;;5013556;28;20184;-73
2022/11/08 04:51:25;;;;;;;3.25;2.10;;;8.60;99.90;;;;;;5014193;28;20466;-74
2022/11/08 04:53:51;;;;;;;4.22;2.20;;;8.60;99.90;;;;;;5003908;28;20030;-74
2022/11/08 04:56:20;;;;;;;4.55;2.15;;;8.50;99.90;;;;;;5016466;28;20036;-74
2022/11/08 04:58:56;;;;;;;2.97;2.05;;;8.50;99.90;;;;;;5018063;28;20034;-74
2022/11/08 05:01:28;;;;;;;4.28;2.47;;;8.50;99.90;;;;;;5016922;28;20053;-74
2022/11/08 05:03:54;;;;;;;4.07;2.28;;;8.40;99.90;;;;;;5010016;28;20029;-74
2022/11/08 05:06:22;;;;;;;3.88;1.90;;;8.50;99.90;;;;;;5019517;28;20029;-74
2022/11/08 05:08:49;;;;;;;4.82;2.33;;;8.40;99.90;;;;;;5011199;28;20404;-74
2022/11/08 05:11:18;;;;;;;7.43;3.08;;;8.40;99.90;;;;;;5017294;28;20037;-74
2022/11/08 05:13:44;;;;;;;7.38;3.58;;;8.30;99.90;;;;;;5028646;28;20034;-74
2022/11/08 05:16:13;;;;;;;8.45;3.72;;;8.30;99.90;;;;;;5004600;28;20028;-74
2022/11/08 05:18:39;;;;;;;9.50;4.72;;;8.30;99.90;;;;;;5023651;28;20029;-74
2022/11/08 05:23:49;;;;;;;10.68;5.45;;;8.20;99.90;;;;;;5026084;28;20114;-74
2022/11/08 05:26:16;;;;;;;8.80;5.32;;;8.20;99.90;;;;;;5022340;28;20033;-73
2022/11/08 05:28:42;;;;;;;10.18;5.68;;;8.20;99.90;;;;;;5017686;28;20048;-73
2022/11/08 05:31:08;;;;;;;9.68;5.50;;;8.20;99.90;;;;;;5020419;28;20049;-73
2022/11/08 05:33:34;;;;;;;11.32;5.63;;;8.20;99.90;;;;;;5022727;28;20029;-73
2022/11/08 05:36:09;;;;;;;8.10;5.68;;;8.20;99.90;;;;;;5026867;28;20026;-74
2022/11/08 05:38:36;;;;;;;9.40;6.68;;;8.20;99.90;;;;;;5026541;28;20195;-74
2022/11/08 05:41:10;;;;;;;10.02;6.80;;;8.20;99.90;;;;;;5018222;28;20025;-74
2022/11/08 05:43:36;;;;;;;8.73;6.38;;;8.20;99.90;;;;;;5018511;28;20026;-74
2022/11/08 05:46:02;;;;;;;10.25;6.93;;;8.20;99.90;;;;;;5026203;28;20032;-73
2022/11/08 05:48:27;;;;;;;11.05;6.13;;;8.20;99.90;;;;;;5024817;28;20036;-74
2022/11/08 05:50:53;;;;;;;9.15;5.72;;;8.20;99.90;;;;;;5016512;28;20029;-74
2022/11/08 05:53:19;;;;;;;10.32;6.32;;;8.20;99.90;;;;;;5027132;28;22997;-74
2022/11/08 05:55:45;;;;;;;9.25;6.78;;;8.20;99.90;;;;;;5023071;28;20269;-73
2022/11/08 05:58:11;;;;;;;10.65;7.05;;;8.20;99.90;;;;;;5010816;28;20033;-74
2022/11/08 06:00:36;;;;;;;9.55;6.70;;;8.20;99.90;;;;;;5013579;28;20025;-74
2022/11/08 06:03:06;;;;;;;12.88;5.80;;;8.20;99.90;;;;;;5027308;28;20034;-74
2022/11/08 06:05:33;;;;;;;9.30;5.70;;;8.30;99.90;;;;;;5016290;28;20049;-74
2022/11/08 06:07:58;;;;;;;8.57;5.07;;;8.30;99.90;;;;;;5012122;28;20036;-74
2022/11/08 06:10:24;;;;;;;7.25;4.75;;;8.20;99.90;;;;;;4997309;28;20029;-74
2022/11/08 06:12:50;;;;;;;6.75;4.35;;;8.30;99.90;;;;;;5007487;28;20032;-74
2022/11/08 06:15:16;;;;;;;6.68;4.35;;;8.30;99.90;;;;;;5020918;28;20401;-74
2022/11/08 06:17:41;;;;;;;6.60;3.83;;;8.30;99.90;;;;;;5024282;28;20148;-74
2022/11/08 06:20:10;;;;;;;5.38;3.47;;;8.30;99.90;;;;;;5022994;28;20131;-75
2022/11/08 06:22:36;;;;;;;5.70;3.63;;;8.20;99.90;;;;;;5020060;28;20021;-74
2022/11/08 06:25:02;;;;;;;5.57;3.10;;;8.20;99.90;;;;;;5018309;28;20036;-75
2022/11/08 06:27:28;;;;;;;6.90;3.80;;;8.20;99.90;;;;;;5014944;28;20029;-74
2022/11/08 06:29:53;;;;;;;5.00;3.30;;;8.20;99.90;;;;;;5022961;28;20049;-75
2022/11/08 06:32:19;;;;;;;6.28;3.28;;;8.10;99.90;;;;;;5023481;28;20074;-74
2022/11/08 06:34:45;;;;;;;6.82;3.35;;;8.10;99.90;;;;;;5016855;28;20037;-74
2022/11/08 06:37:11;;;;;;;9.30;3.95;;;8.10;99.90;;;;;;5020500;28;20178;-74
2022/11/08 06:39:37;;;;;;;6.70;3.63;;;8.10;99.90;;;;;;5021417;28;20563;-74
2022/11/08 06:42:03;;;;;;;10.85;4.00;;;8.10;99.90;;;;;;5007754;28;20033;-74
2022/11/08 06:44:28;;;;;;;7.00;3.70;;;8.10;99.90;;;;;;5016788;28;20258;-74
2022/11/08 06:46:54;;;;;;;7.75;4.80;;;8.10;99.90;;;;;;5013663;28;20072;-74
2022/11/08 06:49:22;;;;;;;9.27;5.20;;;8.10;99.90;;;;;;5017335;28;20030;-74
2022/11/08 06:51:48;;;;;;;7.80;4.80;;;8.10;99.90;;;;;;5011837;28;20119;-73
2022/11/08 06:54:14;;;;;;;15.68;6.05;;;8.20;99.90;;;;;;5018230;28;20021;-73
2022/11/08 06:56:39;;;;;;;11.55;6.00;;;8.10;99.90;;;;;;5021124;28;20078;-73
2022/11/08 06:59:05;;;;;;;8.75;5.80;;;8.20;99.90;;;;;;5016127;28;20116;-73
2022/11/08 07:01:31;;;;;;;9.70;5.45;;;8.20;99.90;;;;;;5022790;28;20437;-73
2022/11/08 07:03:56;;;;;;;8.77;5.50;;;8.20;99.90;;;;;;5034826;28;20029;-73
2022/11/08 07:06:22;;;;;;;8.95;5.93;;;8.20;99.90;;;;;;5026467;28;20083;-73
2022/11/08 07:08:48;;;;;;;10.95;6.10;;;8.20;99.90;;;;;;5021500;28;20034;-73
2022/11/08 07:11:14;;;;;;;9.68;6.28;;;8.20;99.90;;;;;;5019781;28;20398;-73
2022/11/08 07:13:39;;;;;;;11.75;7.20;;;8.30;99.90;;;;;;5018758;28;20029;-73
2022/11/08 07:16:05;;;;;;;12.48;7.43;;;8.20;99.90;;;;;;5018893;28;20036;-73
2022/11/08 07:18:31;;;;;;;16.90;9.68;;;8.30;99.90;;;;;;5030691;28;20397;-73
2022/11/08 07:20:59;;;;;;;15.70;10.07;;;8.30;99.90;;;;;;5022189;28;20033;-73
2022/11/08 07:23:25;;;;;;;20.55;11.00;;;8.30;99.90;;;;;;5023170;28;20034;-73
2022/11/08 07:25:50;;;;;;;23.70;11.85;;;8.40;99.90;;;;;;5027013;28;20025;-73
2022/11/08 07:28:17;;;;;;;20.23;10.55;;;8.40;99.90;;;;;;5025246;28;20401;-73
2022/11/08 07:30:45;;;;;;;17.25;8.40;;;8.50;99.90;;;;;;5010403;28;20076;-73
2022/11/08 07:33:11;;;;;;;11.02;6.32;;;8.50;99.90;;;;;;5010363;28;20104;-73
2022/11/08 07:35:37;;;;;;;9.38;4.85;;;8.60;99.90;;;;;;5020660;28;20021;-73
2022/11/08 07:38:02;;;;;;;10.52;4.00;;;8.60;99.90;;;;;;5025760;28;20048;-73
2022/11/08 07:40:28;;;;;;;9.77;4.22;;;8.60;99.90;;;;;;5026145;28;20098;-73
2022/11/08 07:42:57;;;;;;;6.45;3.90;;;8.60;99.90;;;;;;5030049;28;20021;-73
2022/11/08 07:45:23;;;;;;;9.77;4.15;;;8.60;99.90;;;;;;5020346;28;20033;-73
2022/11/08 07:47:56;;;;;;;7.85;4.03;;;8.70;99.90;;;;;;5028482;28;20042;-73
2022/11/08 07:50:22;;;;;;;6.90;3.42;;;8.70;99.90;;;;;;5021328;28;20029;-73
2022/11/08 07:52:51;;;;;;;8.50;4.28;;;8.70;99.90;;;;;;5011669;28;20083;-74
2022/11/08 07:55:17;;;;;;;7.45;4.82;;;8.70;99.90;;;;;;5008164;28;20899;-73
2022/11/08 07:57:42;;;;;;;9.70;5.80;;;8.70;99.90;;;;;;5015124;28;20120;-73
2022/11/08 08:00:09;;;;;;;10.05;6.50;;;8.70;99.90;;;;;;5023445;28;20072;-73
2022/11/08 08:02:34;;;;;;;20.63;11.80;;;8.70;99.90;;;;;;5018319;28;20516;-73
2022/11/08 08:05:00;;;;;;;15.30;9.05;;;8.70;99.90;;;;;;5025548;28;20040;-73
2022/11/08 08:07:25;;;;;;;21.33;8.00;;;8.70;99.90;;;;;;5023941;28;20060;-73
2022/11/08 08:09:51;;;;;;;13.23;7.60;;;8.80;99.90;;;;;;5026077;28;20747;-73
2022/11/08 08:12:17;;;;;;;13.05;7.10;;;8.90;99.90;;;;;;5028710;28;20032;-73
2022/11/08 08:14:42;;;;;;;13.75;7.45;;;9.00;99.90;;;;;;5020156;28;20377;-73
2022/11/08 08:17:08;;;;;;;16.33;7.78;;;9.20;99.90;;;;;;5010668;28;20043;-73
2022/11/08 08:19:33;;;;;;;17.75;7.60;;;9.30;99.90;;;;;;5029477;28;20104;-73
2022/11/08 08:21:59;;;;;;;16.83;8.50;;;9.50;99.90;;;;;;5021603;28;20018;-73
2022/11/08 08:24:25;;;;;;;13.80;7.03;;;9.70;99.90;;;;;;5019888;28;20546;-71
2022/11/08 08:26:51;;;;;;;11.57;6.20;;;9.80;99.90;;;;;;5019028;28;20029;-71
2022/11/08 08:29:17;;;;;;;13.10;6.10;;;10.00;99.90;;;;;;5022891;28;20041;-71
2022/11/08 08:31:42;;;;;;;9.52;6.18;;;10.20;99.90;;;;;;5022296;28;20033;-71
2022/11/08 08:34:08;;;;;;;11.23;6.90;;;10.20;99.90;;;;;;5020881;28;20039;-71
2022/11/08 08:36:34;;;;;;;8.32;4.43;;;10.40;99.90;;;;;;5022356;28;20021;-72
2022/11/08 08:38:59;;;;;;;10.25;3.90;;;10.50;99.90;;;;;;5017120;28;20064;-71
2022/11/08 08:41:25;;;;;;;8.63;3.63;;;10.60;99.90;;;;;;5023323;28;20128;-71
2022/11/08 08:43:50;;;;;;;7.50;3.70;;;10.60;99.90;;;;;;5024357;28;20025;-71
2022/11/08 08:46:16;;;;;;;7.72;3.28;;;10.70;99.90;;;;;;5023663;28;20477;-71
2022/11/08 08:48:42;;;;;;;9.60;3.63;;;10.70;99.90;;;;;;5024563;28;20063;-72
2022/11/08 08:51:07;;;;;;;8.85;3.42;;;10.80;99.90;;;;;;5018472;28;20053;-72
2022/11/08 08:53:34;;;;;;;8.13;3.42;;;10.90;99.90;;;;;;5021751;28;20018;-71
2022/11/08 08:56:04;;;;;;;10.13;3.45;;;10.90;99.90;;;;;;5029108;28;20033;-71
2022/11/08 08:58:29;;;;;;;9.20;3.78;;;11.00;99.90;;;;;;5014055;28;20032;-71
2022/11/08 09:01:03;;;;;;;16.75;7.90;;;11.00;99.90;;;;;;5025067;28;20013;-71
2022/11/08 09:03:30;;;;;;;16.67;7.80;;;11.10;99.90;;;;;;5018389;28;20108;-71
2022/11/08 09:05:57;;;;;;;12.95;7.68;;;11.10;99.90;;;;;;5022471;28;20486;-71
2022/11/08 09:08:23;;;;;;;6.93;3.30;;;11.10;99.90;;;;;;5022962;28;20036;-71
2022/11/08 09:10:57;;;;;;;7.15;2.60;;;11.20;99.90;;;;;;5016530;28;20075;-71
2022/11/08 09:13:25;;;;;;;6.50;2.47;;;11.20;99.90;;;;;;5021878;28;20080;-71
2022/11/08 09:15:51;;;;;;;6.95;2.40;;;11.30;99.90;;;;;;5016417;28;20100;-71
2022/11/08 09:18:17;;;;;;;7.75;2.65;;;11.40;99.90;;;;;;5021265;28;20025;-71
2022/11/08 09:20:43;;;;;;;7.13;3.30;;;11.50;99.90;;;;;;5023169;28;20324;-71
2022/11/08 09:23:10;;;;;;;8.35;4.03;;;11.60;99.90;;;;;;5024023;28;20026;-71
2022/11/08 09:25:36;;;;;;;5.97;3.38;;;11.80;99.90;;;;;;5018446;28;20022;-71
2022/11/08 09:28:03;;;;;;;6.22;2.33;;;11.80;99.90;;;;;;5018472;28;20474;-71
2022/11/08 09:30:29;;;;;;;7.72;2.35;;;11.90;99.90;;;;;;4673611;28;9999749;-71
2022/11/08 09:32:54;;;;;;;5.70;2.40;;;12.00;99.90;;;;;;5018219;28;20039;-71
2022/11/08 09:35:21;;;;;;;6.38;2.30;;;12.10;99.90;;;;;;5019314;28;20037;-71
2022/11/08 09:37:46;;;;;;;4.85;2.55;;;12.10;99.90;;;;;;5022786;28;20421;-71
2022/11/08 09:40:19;;;;;;;3.38;1.80;;;12.20;99.90;;;;;;5020411;28;20054;-71
2022/11/08 09:42:51;;;;;;;3.85;1.88;;;12.20;99.90;;;;;;5012280;28;20033;-71
2022/11/08 09:45:29;;;;;;;3.38;1.88;;;12.20;99.90;;;;;;5019102;28;20504;-72
2022/11/08 09:48:01;;;;;;;6.78;1.75;;;12.30;99.90;;;;;;5016883;28;22030;-72
2022/11/08 09:50:41;;;;;;;3.88;1.50;;;12.30;99.90;;;;;;5021913;28;20025;-71
2022/11/08 09:53:24;;;;;;;4.00;2.30;;;12.30;99.90;;;;;;5012243;28;20040;-72
2022/11/08 09:56:01;;;;;;;3.55;1.88;;;12.40;99.90;;;;;;5016291;28;20036;-72
2022/11/08 09:58:34;;;;;;;3.35;1.80;;;12.50;99.90;;;;;;5019061;28;20045;-70
2022/11/08 10:01:01;;;;;;;4.70;1.83;;;12.50;99.90;;;;;;5013441;28;20022;-71
2022/11/08 10:03:27;;;;;;;3.83;1.70;;;12.50;99.90;;;;;;5014823;28;20513;-71
2022/11/08 10:06:11;;;;;;;6.68;1.88;;;12.50;99.90;;;;;;5017766;28;20069;-71
2022/11/08 10:08:44;;;;;;;3.35;1.60;;;12.60;99.90;;;;;;5020774;28;20030;-71
2022/11/08 10:11:29;;;;;;;3.53;1.80;;;12.70;99.90;;;;;;5017628;28;20034;-71
2022/11/08 10:14:13;;;;;;;4.80;2.33;;;12.70;99.90;;;;;;5015819;28;20022;-71
2022/11/08 10:17:03;;;;;;;5.80;2.70;;;12.70;99.90;;;;;;5026749;28;20025;-71
2022/11/08 10:19:34;;;;;;;6.53;3.95;;;12.80;99.90;;;;;;5013287;28;20030;-71
2022/11/08 10:22:11;;;;;;;9.75;2.83;;;12.80;99.90;;;;;;5017595;28;20172;-72
2022/11/08 10:24:55;;;;;;;3.42;2.45;;;12.80;99.90;;;;;;5020851;28;20017;-71
2022/11/08 10:27:37;;;;;;;3.38;2.05;;;12.80;99.90;;;;;;5018495;28;20026;-71
2022/11/08 10:30:23;;;;;;;3.95;1.55;;;12.90;99.90;;;;;;5010814;28;20298;-71
2022/11/08 10:32:55;;;;;;;3.97;2.17;;;13.00;99.90;;;;;;5020901;28;20042;-72
2022/11/08 10:35:29;;;;;;;7.03;3.85;;;13.10;99.90;;;;;;5010566;28;20028;-72
2022/11/08 10:37:57;;;;;;;6.40;3.65;;;13.10;99.90;;;;;;5023603;28;20087;-71
2022/11/08 10:41:08;;;;;;;7.88;2.80;;;13.10;99.90;;;;;;5013634;28;20029;-71
2022/11/08 10:43:40;;;;;;;11.35;4.95;;;13.20;99.90;;;;;;5014536;28;20618;-72
2022/11/08 10:46:45;;;;;;;7.88;3.80;;;13.30;99.90;;;;;;5013037;28;20065;-72
2022/11/08 10:49:21;;;;;;;11.85;7.38;;;13.30;99.90;;;;;;5023125;28;20036;-71
2022/11/08 10:51:50;;;;;;;9.82;5.13;;;13.30;99.90;;;;;;5020259;28;20032;-71
2022/11/08 10:54:41;;;;;;;7.05;3.50;;;13.30;99.90;;;;;;5020633;28;20034;-71
2022/11/08 10:57:09;;;;;;;5.15;2.40;;;13.30;99.90;;;;;;5022251;28;20021;-71
2022/11/08 10:59:35;;;;;;;6.10;2.22;;;13.30;99.90;;;;;;5026700;28;20469;-70
2022/11/08 11:02:01;;;;;;;4.25;2.50;;;13.40;99.90;;;;;;5022870;28;20044;-71
2022/11/08 11:04:30;;;;;;;3.80;1.75;;;13.50;99.90;;;;;;5021788;28;20509;-72
2022/11/08 11:07:22;;;;;;;5.45;2.60;;;13.60;99.90;;;;;;5022489;28;20357;-72
2022/11/08 11:09:48;;;;;;;2.83;1.90;;;13.80;99.90;;;;;;5022176;28;20025;-71
2022/11/08 11:12:14;;;;;;;4.80;1.50;;;14.00;99.90;;;;;;5016954;28;20039;-71
2022/11/08 11:14:39;;;;;;;2.10;1.10;;;14.10;99.90;;;;;;5031196;28;20036;-72
2022/11/08 11:17:16;;;;;;;4.50;2.05;;;14.20;99.90;;;;;;5019459;28;20029;-72
2022/11/08 11:19:53;;;;;;;3.13;2.40;;;14.40;99.90;;;;;;5027985;28;20021;-71
2022/11/08 11:22:31;;;;;;;5.43;2.85;;;14.30;99.90;;;;;;5014571;28;20030;-71
2022/11/08 11:25:05;;;;;;;6.32;2.80;;;14.20;99.90;;;;;;5022477;28;20072;-71
2022/11/08 11:27:36;;;;;;;3.50;1.50;;;14.10;99.90;;;;;;5009248;28;20065;-71
2022/11/08 11:30:23;;;;;;;3.17;1.98;;;14.00;99.90;;;;;;5013185;28;20048;-71
2022/11/08 11:33:02;;;;;;;4.28;1.73;;;14.00;99.90;;;;;;5024545;28;20069;-71
2022/11/08 11:35:36;;;;;;;4.15;1.70;;;13.90;99.90;;;;;;5019018;28;20030;-71
2022/11/08 11:38:05;;;;;;;2.22;0.95;;;13.90;99.90;;;;;;5031425;28;20561;-71
2022/11/08 11:40:47;;;;;;;3.00;0.90;;;13.80;99.90;;;;;;5022341;28;20040;-71
2022/11/08 11:43:32;;;;;;;4.18;1.20;;;13.80;99.90;;;;;;5016733;28;20037;-71
2022/11/08 11:46:11;;;;;;;1.20;1.00;;;13.80;99.90;;;;;;5008682;28;20037;-71
2022/11/08 11:48:58;;;;;;;6.90;1.67;;;13.90;99.90;;;;;;5016418;28;20044;-71
2022/11/08 11:51:28;;;;;;;3.00;1.70;;;14.00;99.90;;;;;;5027490;28;20021;-71
2022/11/08 11:53:54;;;;;;;2.75;1.85;;;14.20;99.90;;;;;;5023096;28;20033;-71
2022/11/08 11:56:28;;;;;;;2.45;1.38;;;14.30;99.90;;;;;;5020230;28;20033;-71
2022/11/08 11:59:07;;;;;;;1.98;1.10;;;14.30;99.90;;;;;;5018448;28;20017;-71
2022/11/08 12:01:46;;;;;;;3.22;1.80;;;14.30;99.90;;;;;;5023996;28;20025;-71
2022/11/08 12:04:12;;;;;;;5.03;1.20;;;14.30;99.90;;;;;;5016943;28;20058;-71
2022/11/08 12:06:48;;;;;;;3.75;1.20;;;14.40;99.90;;;;;;5022942;28;20525;-71
2022/11/08 12:09:40;;;;;;;2.85;1.55;;;14.50;99.90;;;;;;5016259;28;20037;-70
2022/11/08 12:12:24;;;;;;;3.70;1.90;;;14.70;99.90;;;;;;5026555;28;20041;-71
2022/11/08 12:14:54;;;;;;;6.35;2.03;;;15.00;99.90;;;;;;5027338;28;20029;-70
2022/11/08 12:17:28;;;;;;;5.20;1.80;;;15.10;99.90;;;;;;5015103;28;20792;-71
2022/11/08 12:20:24;;;;;;;6.05;2.42;;;15.10;99.90;;;;;;5024895;28;20087;-71
2022/11/08 12:23:00;;;;;;;2.90;1.23;;;15.10;99.90;;;;;;5019213;28;20503;-70
2022/11/08 12:25:46;;;;;;;7.38;2.03;;;15.10;99.90;;;;;;5024261;28;20430;-69
2022/11/08 12:28:43;;;;;;;9.23;2.10;;;15.00;99.90;;;;;;5014358;28;20092;-70
2022/11/08 12:31:20;;;;;;;5.35;2.38;;;14.90;99.90;;;;;;5002605;28;20140;-69
2022/11/08 12:34:12;;;;;;;4.47;1.80;;;14.90;99.90;;;;;;5017318;28;20576;-69
2022/11/08 12:36:45;;;;;;;4.63;2.03;;;15.10;99.90;;;;;;5013572;28;20504;-69
2022/11/08 12:39:32;;;;;;;8.10;2.70;;;15.30;99.90;;;;;;5021042;28;20021;-69
2022/11/08 12:42:22;;;;;;;3.88;1.40;;;15.40;99.90;;;;;;5019538;28;20064;-69
2022/11/08 12:45:19;;;;;;;5.20;1.00;;;15.50;99.90;;;;;;5016371;28;20040;-68
2022/11/08 12:48:22;;;;;;;2.80;1.20;;;15.60;99.90;;;;;;5013651;28;20036;-69
2022/11/08 12:51:06;;;;;;;4.47;1.43;;;15.50;99.90;;;;;;5029777;28;20041;-69
2022/11/08 12:54:01;;;;;;;4.78;1.50;;;15.60;99.90;;;;;;5018635;28;20140;-69
2022/11/08 12:56:34;;;;;;;2.28;1.20;;;15.60;99.90;;;;;;5022956;28;20580;-69
2022/11/08 12:59:02;;;;;;;3.95;1.40;;;15.60;99.90;;;;;;5020263;28;20043;-68
2022/11/08 13:01:28;;;;;;;1.83;1.10;;;15.50;99.90;;;;;;5021899;28;20409;-69
2022/11/08 13:04:14;;;;;;;2.88;1.52;;;15.40;99.90;;;;;;5016017;28;20025;-69
2022/11/08 13:06:49;;;;;;;2.55;1.35;;;15.40;99.90;;;;;;5014300;28;20032;-69
2022/11/08 13:09:36;;;;;;;3.40;1.30;;;15.30;99.90;;;;;;5011881;28;20119;-69
2022/11/08 13:12:19;;;;;;;4.95;1.00;;;15.30;99.90;;;;;;5020613;28;20042;-69
2022/11/08 13:14:46;;;;;;;2.72;1.60;;;15.30;99.90;;;;;;5023890;28;20058;-69
2022/11/08 13:17:25;;;;;;;2.67;1.02;;;15.20;99.90;;;;;;5011216;28;20068;-69
2022/11/08 13:19:52;;;;;;;5.88;0.95;;;15.10;99.90;;;;;;5019040;28;20408;-68
2022/11/08 13:22:30;;;;;;;6.22;5.53;;;15.00;99.90;;;;;;5019106;28;20034;-69